sensor_id;sensor_type;location;lat;lon;timestamp;P1;durP1;ratioP1;P2;durP2;ratioP2
12840;SDS011;6487;48.626;12.486;2024-02-04T00:00:04;2.40;;;1.53;;
12840;SDS011;6487;48.626;12.486;2024-02-04T00:02:34;1.77;;;1.43;;
12840;SDS011;6487;48.626;12.486;2024-02-04T00:05:04;1.93;;;1.83;;
12840;SDS011;6487;48.626;12.486;2024-02-04T00:07:33;2.00;;;1.80;;
12840;SDS011;6487;48.626;12.486;2024-02-04T00:10:01;1.60;;;1.50;;
12840;SDS011;6487;48.626;12.486;2024-02-04T00:12:29;1.70;;;1.27;;
12840;SDS011;6487;48.626;12.486;2024-02-04T00:14:58;1.50;;;1.40;;
12840;SDS011;6487;48.626;12.486;2024-02-04T00:17:26;2.07;;;1.83;;
12840;SDS011;6487;48.626;12.486;2024-02-04T00:19:58;1.67;;;1.57;;
12840;SDS011;6487;48.626;12.486;2024-02-04T00:22:27;1.63;;;1.50;;
12840;SDS011;6487;48.626;12.486;2024-02-04T00:24:56;1.77;;;1.67;;
12840;SDS011;6487;48.626;12.486;2024-02-04T00:27:28;3.27;;;1.50;;
12840;SDS011;6487;48.626;12.486;2024-02-04T00:30:00;2.07;;;1.60;;
12840;SDS011;6487;48.626;12.486;2024-02-04T00:32:29;1.80;;;1.70;;
12840;SDS011;6487;48.626;12.486;2024-02-04T00:34:57;2.83;;;1.70;;
12840;SDS011;6487;48.626;12.486;2024-02-04T00:37:27;1.43;;;1.33;;
12840;SDS011;6487;48.626;12.486;2024-02-04T00:39:56;1.67;;;1.57;;
12840;SDS011;6487;48.626;12.486;2024-02-04T00:42:24;1.80;;;1.70;;
12840;SDS011;6487;48.626;12.486;2024-02-04T00:44:52;2.00;;;1.90;;
12840;SDS011;6487;48.626;12.486;2024-02-04T00:47:21;2.00;;;1.57;;
12840;SDS011;6487;48.626;12.486;2024-02-04T00:49:52;2.00;;;1.50;;
12840;SDS011;6487;48.626;12.486;2024-02-04T00:52:21;1.67;;;1.30;;
12840;SDS011;6487;48.626;12.486;2024-02-04T00:54:50;1.43;;;1.33;;
12840;SDS011;6487;48.626;12.486;2024-02-04T00:57:19;1.47;;;1.37;;
12840;SDS011;6487;48.626;12.486;2024-02-04T00:59:47;1.43;;;1.30;;
12840;SDS011;6487;48.626;12.486;2024-02-04T01:02:16;1.87;;;1.60;;
12840;SDS011;6487;48.626;12.486;2024-02-04T01:04:45;1.93;;;1.73;;
12840;SDS011;6487;48.626;12.486;2024-02-04T01:07:15;1.70;;;1.60;;
12840;SDS011;6487;48.626;12.486;2024-02-04T01:09:43;1.80;;;1.70;;
12840;SDS011;6487;48.626;12.486;2024-02-04T01:12:13;2.10;;;1.70;;
12840;SDS011;6487;48.626;12.486;2024-02-04T01:14:41;2.50;;;1.60;;
12840;SDS011;6487;48.626;12.486;2024-02-04T01:17:10;1.63;;;1.53;;
12840;SDS011;6487;48.626;12.486;2024-02-04T01:19:39;2.03;;;1.83;;
12840;SDS011;6487;48.626;12.486;2024-02-04T01:22:07;2.93;;;1.93;;
12840;SDS011;6487;48.626;12.486;2024-02-04T01:24:36;2.03;;;1.83;;
12840;SDS011;6487;48.626;12.486;2024-02-04T01:27:04;1.43;;;1.33;;
12840;SDS011;6487;48.626;12.486;2024-02-04T01:29:35;1.90;;;1.80;;
12840;SDS011;6487;48.626;12.486;2024-02-04T01:32:04;2.30;;;1.70;;
12840;SDS011;6487;48.626;12.486;2024-02-04T01:34:33;1.67;;;1.57;;
12840;SDS011;6487;48.626;12.486;2024-02-04T01:37:01;2.00;;;1.80;;
12840;SDS011;6487;48.626;12.486;2024-02-04T01:39:30;2.73;;;2.20;;
12840;SDS011;6487;48.626;12.486;2024-02-04T01:41:59;2.30;;;2.10;;
12840;SDS011;6487;48.626;12.486;2024-02-04T01:44:31;2.50;;;1.80;;
12840;SDS011;6487;48.626;12.486;2024-02-04T01:47:00;2.10;;;1.90;;
12840;SDS011;6487;48.626;12.486;2024-02-04T01:49:29;1.90;;;1.80;;
12840;SDS011;6487;48.626;12.486;2024-02-04T01:51:58;1.97;;;1.87;;
12840;SDS011;6487;48.626;12.486;2024-02-04T01:54:30;2.50;;;2.00;;
12840;SDS011;6487;48.626;12.486;2024-02-04T01:56:59;2.77;;;2.57;;
12840;SDS011;6487;48.626;12.486;2024-02-04T01:59:29;2.30;;;2.10;;
12840;SDS011;6487;48.626;12.486;2024-02-04T02:01:57;2.50;;;2.30;;
12840;SDS011;6487;48.626;12.486;2024-02-04T02:04:29;2.60;;;2.40;;
12840;SDS011;6487;48.626;12.486;2024-02-04T02:06:57;3.80;;;2.90;;
12840;SDS011;6487;48.626;12.486;2024-02-04T02:09:27;2.30;;;2.10;;
12840;SDS011;6487;48.626;12.486;2024-02-04T02:11:57;3.00;;;2.70;;
12840;SDS011;6487;48.626;12.486;2024-02-04T02:14:34;2.57;;;2.37;;
12840;SDS011;6487;48.626;12.486;2024-02-04T02:17:11;2.70;;;2.50;;
12840;SDS011;6487;48.626;12.486;2024-02-04T02:19:46;3.40;;;2.23;;
12840;SDS011;6487;48.626;12.486;2024-02-04T02:22:25;2.53;;;2.30;;
12840;SDS011;6487;48.626;12.486;2024-02-04T02:24:58;3.10;;;2.50;;
12840;SDS011;6487;48.626;12.486;2024-02-04T02:27:28;2.50;;;2.30;;
12840;SDS011;6487;48.626;12.486;2024-02-04T02:29:56;2.37;;;2.17;;
12840;SDS011;6487;48.626;12.486;2024-02-04T02:32:25;2.63;;;2.43;;
12840;SDS011;6487;48.626;12.486;2024-02-04T02:34:53;3.00;;;2.70;;
12840;SDS011;6487;48.626;12.486;2024-02-04T02:37:27;2.50;;;2.30;;
12840;SDS011;6487;48.626;12.486;2024-02-04T02:40:05;2.40;;;2.20;;
12840;SDS011;6487;48.626;12.486;2024-02-04T02:42:38;3.27;;;2.07;;
12840;SDS011;6487;48.626;12.486;2024-02-04T02:45:09;2.40;;;2.03;;
12840;SDS011;6487;48.626;12.486;2024-02-04T02:47:39;2.73;;;2.17;;
12840;SDS011;6487;48.626;12.486;2024-02-04T02:50:09;1.90;;;1.80;;
12840;SDS011;6487;48.626;12.486;2024-02-04T02:52:37;2.37;;;1.90;;
12840;SDS011;6487;48.626;12.486;2024-02-04T02:55:07;2.23;;;2.03;;
12840;SDS011;6487;48.626;12.486;2024-02-04T02:57:36;1.80;;;1.70;;
12840;SDS011;6487;48.626;12.486;2024-02-04T03:00:05;2.00;;;1.90;;
12840;SDS011;6487;48.626;12.486;2024-02-04T03:02:35;2.00;;;1.90;;
12840;SDS011;6487;48.626;12.486;2024-02-04T03:05:04;1.97;;;1.80;;
12840;SDS011;6487;48.626;12.486;2024-02-04T03:07:33;1.63;;;1.53;;
12840;SDS011;6487;48.626;12.486;2024-02-04T03:10:01;2.07;;;1.87;;
12840;SDS011;6487;48.626;12.486;2024-02-04T03:12:31;1.77;;;1.67;;
12840;SDS011;6487;48.626;12.486;2024-02-04T03:15:02;1.83;;;1.53;;
12840;SDS011;6487;48.626;12.486;2024-02-04T03:17:32;1.60;;;1.50;;
12840;SDS011;6487;48.626;12.486;2024-02-04T03:20:01;2.07;;;1.87;;
12840;SDS011;6487;48.626;12.486;2024-02-04T03:22:30;1.80;;;1.70;;
12840;SDS011;6487;48.626;12.486;2024-02-04T03:24:58;1.57;;;1.47;;
12840;SDS011;6487;48.626;12.486;2024-02-04T03:27:27;1.70;;;1.60;;
12840;SDS011;6487;48.626;12.486;2024-02-04T03:29:57;1.90;;;1.70;;
12840;SDS011;6487;48.626;12.486;2024-02-04T03:32:25;1.73;;;1.63;;
12840;SDS011;6487;48.626;12.486;2024-02-04T03:34:55;1.63;;;1.53;;
12840;SDS011;6487;48.626;12.486;2024-02-04T03:37:23;2.63;;;2.43;;
12840;SDS011;6487;48.626;12.486;2024-02-04T03:39:52;2.17;;;1.50;;
12840;SDS011;6487;48.626;12.486;2024-02-04T03:42:20;1.70;;;1.60;;
12840;SDS011;6487;48.626;12.486;2024-02-04T03:44:49;1.67;;;1.43;;
12840;SDS011;6487;48.626;12.486;2024-02-04T03:47:20;3.60;;;1.87;;
12840;SDS011;6487;48.626;12.486;2024-02-04T03:49:48;1.63;;;1.53;;
12840;SDS011;6487;48.626;12.486;2024-02-04T03:52:17;2.17;;;1.70;;
12840;SDS011;6487;48.626;12.486;2024-02-04T03:54:45;2.40;;;1.57;;
12840;SDS011;6487;48.626;12.486;2024-02-04T03:57:13;2.03;;;1.83;;
12840;SDS011;6487;48.626;12.486;2024-02-04T03:59:44;1.60;;;1.50;;
12840;SDS011;6487;48.626;12.486;2024-02-04T04:02:13;1.47;;;1.37;;
12840;SDS011;6487;48.626;12.486;2024-02-04T04:04:43;1.47;;;1.37;;
12840;SDS011;6487;48.626;12.486;2024-02-04T04:07:14;2.27;;;1.30;;
12840;SDS011;6487;48.626;12.486;2024-02-04T04:09:43;1.70;;;1.60;;
12840;SDS011;6487;48.626;12.486;2024-02-04T04:12:11;2.50;;;1.43;;
12840;SDS011;6487;48.626;12.486;2024-02-04T04:14:39;1.20;;;1.10;;
12840;SDS011;6487;48.626;12.486;2024-02-04T04:17:08;2.53;;;1.40;;
12840;SDS011;6487;48.626;12.486;2024-02-04T04:19:36;1.30;;;1.20;;
12840;SDS011;6487;48.626;12.486;2024-02-04T04:22:07;1.50;;;1.40;;
12840;SDS011;6487;48.626;12.486;2024-02-04T04:24:37;2.00;;;1.40;;
12840;SDS011;6487;48.626;12.486;2024-02-04T04:27:06;2.10;;;1.37;;
12840;SDS011;6487;48.626;12.486;2024-02-04T04:29:34;1.53;;;1.43;;
12840;SDS011;6487;48.626;12.486;2024-02-04T04:32:03;3.63;;;1.53;;
12840;SDS011;6487;48.626;12.486;2024-02-04T04:34:32;1.50;;;1.40;;
12840;SDS011;6487;48.626;12.486;2024-02-04T04:37:01;1.60;;;1.50;;
12840;SDS011;6487;48.626;12.486;2024-02-04T04:39:30;2.40;;;1.70;;
12840;SDS011;6487;48.626;12.486;2024-02-04T04:41:59;1.83;;;1.70;;
12840;SDS011;6487;48.626;12.486;2024-02-04T04:44:27;2.73;;;2.03;;
12840;SDS011;6487;48.626;12.486;2024-02-04T04:46:58;3.03;;;2.17;;
12840;SDS011;6487;48.626;12.486;2024-02-04T04:49:27;2.23;;;2.03;;
12840;SDS011;6487;48.626;12.486;2024-02-04T04:51:55;2.10;;;1.90;;
12840;SDS011;6487;48.626;12.486;2024-02-04T04:54:24;2.10;;;1.77;;
12840;SDS011;6487;48.626;12.486;2024-02-04T04:56:53;1.67;;;1.57;;
12840;SDS011;6487;48.626;12.486;2024-02-04T04:59:22;2.43;;;1.87;;
12840;SDS011;6487;48.626;12.486;2024-02-04T05:01:50;1.90;;;1.77;;
12840;SDS011;6487;48.626;12.486;2024-02-04T05:04:19;3.20;;;1.77;;
12840;SDS011;6487;48.626;12.486;2024-02-04T05:06:50;2.20;;;1.97;;
12840;SDS011;6487;48.626;12.486;2024-02-04T05:09:19;2.33;;;2.13;;
12840;SDS011;6487;48.626;12.486;2024-02-04T05:11:47;1.77;;;1.63;;
12840;SDS011;6487;48.626;12.486;2024-02-04T05:14:17;2.20;;;2.00;;
12840;SDS011;6487;48.626;12.486;2024-02-04T05:16:46;2.40;;;1.77;;
12840;SDS011;6487;48.626;12.486;2024-02-04T05:19:14;2.63;;;1.60;;
12840;SDS011;6487;48.626;12.486;2024-02-04T05:21:43;2.53;;;1.63;;
12840;SDS011;6487;48.626;12.486;2024-02-04T05:24:11;2.23;;;2.03;;
12840;SDS011;6487;48.626;12.486;2024-02-04T05:26:40;1.70;;;1.60;;
12840;SDS011;6487;48.626;12.486;2024-02-04T05:29:08;2.13;;;1.80;;
12840;SDS011;6487;48.626;12.486;2024-02-04T05:31:41;1.70;;;1.60;;
12840;SDS011;6487;48.626;12.486;2024-02-04T05:34:10;3.63;;;1.90;;
12840;SDS011;6487;48.626;12.486;2024-02-04T05:36:39;2.03;;;1.60;;
12840;SDS011;6487;48.626;12.486;2024-02-04T05:39:10;2.20;;;2.00;;
12840;SDS011;6487;48.626;12.486;2024-02-04T05:41:39;1.97;;;1.50;;
12840;SDS011;6487;48.626;12.486;2024-02-04T05:44:08;1.93;;;1.77;;
12840;SDS011;6487;48.626;12.486;2024-02-04T05:46:37;1.40;;;1.30;;
12840;SDS011;6487;48.626;12.486;2024-02-04T05:49:08;1.70;;;1.60;;
12840;SDS011;6487;48.626;12.486;2024-02-04T05:51:38;1.87;;;1.47;;
12840;SDS011;6487;48.626;12.486;2024-02-04T05:54:07;2.40;;;1.77;;
12840;SDS011;6487;48.626;12.486;2024-02-04T05:56:36;2.10;;;1.90;;
12840;SDS011;6487;48.626;12.486;2024-02-04T05:59:04;2.23;;;1.73;;
12840;SDS011;6487;48.626;12.486;2024-02-04T06:01:33;1.73;;;1.63;;
12840;SDS011;6487;48.626;12.486;2024-02-04T06:04:01;2.27;;;1.87;;
12840;SDS011;6487;48.626;12.486;2024-02-04T06:06:32;1.80;;;1.60;;
12840;SDS011;6487;48.626;12.486;2024-02-04T06:09:00;2.53;;;1.80;;
12840;SDS011;6487;48.626;12.486;2024-02-04T06:11:29;2.30;;;2.10;;
12840;SDS011;6487;48.626;12.486;2024-02-04T06:13:57;2.13;;;2.00;;
12840;SDS011;6487;48.626;12.486;2024-02-04T06:16:26;2.33;;;2.10;;
12840;SDS011;6487;48.626;12.486;2024-02-04T06:18:57;1.90;;;1.63;;
12840;SDS011;6487;48.626;12.486;2024-02-04T06:21:26;1.83;;;1.73;;
12840;SDS011;6487;48.626;12.486;2024-02-04T06:23:56;2.10;;;1.80;;
12840;SDS011;6487;48.626;12.486;2024-02-04T06:26:24;2.10;;;1.93;;
12840;SDS011;6487;48.626;12.486;2024-02-04T06:28:53;2.60;;;2.00;;
12840;SDS011;6487;48.626;12.486;2024-02-04T06:31:22;2.97;;;2.43;;
12840;SDS011;6487;48.626;12.486;2024-02-04T06:33:50;2.37;;;2.13;;
12840;SDS011;6487;48.626;12.486;2024-02-04T06:36:19;2.57;;;2.30;;
12840;SDS011;6487;48.626;12.486;2024-02-04T06:38:47;3.40;;;2.23;;
12840;SDS011;6487;48.626;12.486;2024-02-04T06:41:17;1.90;;;1.80;;
12840;SDS011;6487;48.626;12.486;2024-02-04T06:43:45;2.03;;;1.93;;
12840;SDS011;6487;48.626;12.486;2024-02-04T06:46:14;2.57;;;2.37;;
12840;SDS011;6487;48.626;12.486;2024-02-04T06:48:52;6.47;;;2.63;;
12840;SDS011;6487;48.626;12.486;2024-02-04T06:51:21;3.10;;;2.57;;
12840;SDS011;6487;48.626;12.486;2024-02-04T06:53:50;3.33;;;2.30;;
12840;SDS011;6487;48.626;12.486;2024-02-04T06:56:20;3.70;;;2.43;;
12840;SDS011;6487;48.626;12.486;2024-02-04T06:58:48;3.53;;;2.20;;
12840;SDS011;6487;48.626;12.486;2024-02-04T07:01:17;2.40;;;2.20;;
12840;SDS011;6487;48.626;12.486;2024-02-04T07:03:45;3.70;;;2.27;;
12840;SDS011;6487;48.626;12.486;2024-02-04T07:06:14;3.03;;;2.60;;
12840;SDS011;6487;48.626;12.486;2024-02-04T07:08:42;2.97;;;2.60;;
12840;SDS011;6487;48.626;12.486;2024-02-04T07:11:10;3.13;;;2.33;;
12840;SDS011;6487;48.626;12.486;2024-02-04T07:13:40;2.27;;;2.17;;
12840;SDS011;6487;48.626;12.486;2024-02-04T07:16:09;3.00;;;2.70;;
12840;SDS011;6487;48.626;12.486;2024-02-04T07:18:37;2.93;;;2.60;;
12840;SDS011;6487;48.626;12.486;2024-02-04T07:21:06;2.60;;;2.40;;
12840;SDS011;6487;48.626;12.486;2024-02-04T07:23:34;3.53;;;2.63;;
12840;SDS011;6487;48.626;12.486;2024-02-04T07:26:03;2.30;;;2.10;;
12840;SDS011;6487;48.626;12.486;2024-02-04T07:28:31;3.33;;;3.03;;
12840;SDS011;6487;48.626;12.486;2024-02-04T07:31:01;6.37;;;5.77;;
12840;SDS011;6487;48.626;12.486;2024-02-04T07:33:31;5.23;;;4.37;;
12840;SDS011;6487;48.626;12.486;2024-02-04T07:35:59;5.70;;;3.37;;
12840;SDS011;6487;48.626;12.486;2024-02-04T07:38:28;3.07;;;2.53;;
12840;SDS011;6487;48.626;12.486;2024-02-04T07:40:56;2.30;;;2.10;;
12840;SDS011;6487;48.626;12.486;2024-02-04T07:43:25;3.70;;;3.10;;
12840;SDS011;6487;48.626;12.486;2024-02-04T07:45:54;3.53;;;2.67;;
12840;SDS011;6487;48.626;12.486;2024-02-04T07:48:31;4.97;;;3.07;;
12840;SDS011;6487;48.626;12.486;2024-02-04T07:51:00;5.20;;;3.13;;
12840;SDS011;6487;48.626;12.486;2024-02-04T07:53:28;7.00;;;4.67;;
12840;SDS011;6487;48.626;12.486;2024-02-04T07:55:57;5.50;;;4.60;;
12840;SDS011;6487;48.626;12.486;2024-02-04T07:58:26;5.43;;;3.90;;
12840;SDS011;6487;48.626;12.486;2024-02-04T08:00:54;4.93;;;4.43;;
12840;SDS011;6487;48.626;12.486;2024-02-04T08:03:23;2.63;;;2.40;;
12840;SDS011;6487;48.626;12.486;2024-02-04T08:05:53;3.20;;;2.90;;
12840;SDS011;6487;48.626;12.486;2024-02-04T08:08:21;3.70;;;2.73;;
12840;SDS011;6487;48.626;12.486;2024-02-04T08:10:50;3.47;;;3.03;;
12840;SDS011;6487;48.626;12.486;2024-02-04T08:13:18;3.50;;;3.00;;
12840;SDS011;6487;48.626;12.486;2024-02-04T08:15:47;3.30;;;2.47;;
12840;SDS011;6487;48.626;12.486;2024-02-04T08:18:18;2.77;;;2.57;;
12840;SDS011;6487;48.626;12.486;2024-02-04T08:20:47;3.23;;;2.27;;
12840;SDS011;6487;48.626;12.486;2024-02-04T08:23:17;2.20;;;2.00;;
12840;SDS011;6487;48.626;12.486;2024-02-04T08:25:45;2.50;;;2.30;;
12840;SDS011;6487;48.626;12.486;2024-02-04T08:28:14;4.70;;;1.97;;
12840;SDS011;6487;48.626;12.486;2024-02-04T08:30:42;2.77;;;2.47;;
12840;SDS011;6487;48.626;12.486;2024-02-04T08:33:11;2.87;;;1.87;;
12840;SDS011;6487;48.626;12.486;2024-02-04T08:35:40;2.37;;;2.17;;
12840;SDS011;6487;48.626;12.486;2024-02-04T08:38:11;2.50;;;2.30;;
12840;SDS011;6487;48.626;12.486;2024-02-04T08:40:41;3.10;;;2.80;;
12840;SDS011;6487;48.626;12.486;2024-02-04T08:43:10;3.60;;;3.13;;
12840;SDS011;6487;48.626;12.486;2024-02-04T08:45:38;2.50;;;2.20;;
12840;SDS011;6487;48.626;12.486;2024-02-04T08:48:07;5.00;;;4.50;;
12840;SDS011;6487;48.626;12.486;2024-02-04T08:50:35;3.40;;;3.07;;
12840;SDS011;6487;48.626;12.486;2024-02-04T08:53:04;2.20;;;2.00;;
12840;SDS011;6487;48.626;12.486;2024-02-04T08:55:36;3.37;;;3.07;;
12840;SDS011;6487;48.626;12.486;2024-02-04T08:58:06;2.37;;;2.17;;
12840;SDS011;6487;48.626;12.486;2024-02-04T09:00:38;2.53;;;2.33;;
12840;SDS011;6487;48.626;12.486;2024-02-04T09:03:06;3.53;;;2.20;;
12840;SDS011;6487;48.626;12.486;2024-02-04T09:05:41;6.13;;;4.40;;
12840;SDS011;6487;48.626;12.486;2024-02-04T09:08:09;6.57;;;4.80;;
12840;SDS011;6487;48.626;12.486;2024-02-04T09:10:38;4.47;;;3.23;;
12840;SDS011;6487;48.626;12.486;2024-02-04T09:13:08;3.73;;;3.33;;
12840;SDS011;6487;48.626;12.486;2024-02-04T09:15:42;2.30;;;2.10;;
12840;SDS011;6487;48.626;12.486;2024-02-04T09:18:11;3.27;;;2.30;;
12840;SDS011;6487;48.626;12.486;2024-02-04T09:20:39;4.07;;;2.20;;
12840;SDS011;6487;48.626;12.486;2024-02-04T09:23:08;1.80;;;1.70;;
12840;SDS011;6487;48.626;12.486;2024-02-04T09:25:37;2.90;;;1.70;;
12840;SDS011;6487;48.626;12.486;2024-02-04T09:28:07;1.50;;;1.40;;
12840;SDS011;6487;48.626;12.486;2024-02-04T09:30:36;1.30;;;1.20;;
12840;SDS011;6487;48.626;12.486;2024-02-04T09:33:05;1.93;;;1.70;;
12840;SDS011;6487;48.626;12.486;2024-02-04T09:35:35;3.13;;;1.40;;
12840;SDS011;6487;48.626;12.486;2024-02-04T09:38:04;1.50;;;1.40;;
12840;SDS011;6487;48.626;12.486;2024-02-04T09:40:37;1.30;;;1.10;;
12840;SDS011;6487;48.626;12.486;2024-02-04T09:43:07;3.57;;;1.40;;
12840;SDS011;6487;48.626;12.486;2024-02-04T09:45:37;1.50;;;1.40;;
12840;SDS011;6487;48.626;12.486;2024-02-04T09:48:06;1.40;;;1.10;;
12840;SDS011;6487;48.626;12.486;2024-02-04T09:50:41;1.20;;;1.10;;
12840;SDS011;6487;48.626;12.486;2024-02-04T09:53:09;1.27;;;0.90;;
12840;SDS011;6487;48.626;12.486;2024-02-04T09:55:42;1.27;;;1.13;;
12840;SDS011;6487;48.626;12.486;2024-02-04T09:58:13;1.23;;;0.90;;
12840;SDS011;6487;48.626;12.486;2024-02-04T10:00:42;3.13;;;1.17;;
12840;SDS011;6487;48.626;12.486;2024-02-04T10:03:15;1.00;;;0.90;;
12840;SDS011;6487;48.626;12.486;2024-02-04T10:05:43;1.80;;;1.30;;
12840;SDS011;6487;48.626;12.486;2024-02-04T10:08:12;1.30;;;1.20;;
12840;SDS011;6487;48.626;12.486;2024-02-04T10:10:46;2.60;;;1.50;;
12840;SDS011;6487;48.626;12.486;2024-02-04T10:13:17;1.47;;;1.20;;
12840;SDS011;6487;48.626;12.486;2024-02-04T10:15:46;1.00;;;0.90;;
12840;SDS011;6487;48.626;12.486;2024-02-04T10:18:16;3.73;;;1.20;;
12840;SDS011;6487;48.626;12.486;2024-02-04T10:20:45;1.10;;;1.00;;
12840;SDS011;6487;48.626;12.486;2024-02-04T10:23:14;1.27;;;1.17;;
12840;SDS011;6487;48.626;12.486;2024-02-04T10:25:42;1.37;;;1.10;;
12840;SDS011;6487;48.626;12.486;2024-02-04T10:28:12;1.60;;;1.17;;
12840;SDS011;6487;48.626;12.486;2024-02-04T10:30:44;0.90;;;0.90;;
12840;SDS011;6487;48.626;12.486;2024-02-04T10:33:12;1.10;;;1.00;;
12840;SDS011;6487;48.626;12.486;2024-02-04T10:35:42;1.80;;;1.30;;
12840;SDS011;6487;48.626;12.486;2024-02-04T10:38:11;2.27;;;1.17;;
12840;SDS011;6487;48.626;12.486;2024-02-04T10:40:39;1.57;;;1.00;;
12840;SDS011;6487;48.626;12.486;2024-02-04T10:43:08;1.33;;;1.23;;
12840;SDS011;6487;48.626;12.486;2024-02-04T10:45:38;1.23;;;1.13;;
12840;SDS011;6487;48.626;12.486;2024-02-04T10:48:11;1.27;;;1.17;;
12840;SDS011;6487;48.626;12.486;2024-02-04T10:50:43;1.30;;;1.20;;
12840;SDS011;6487;48.626;12.486;2024-02-04T10:53:14;1.73;;;1.23;;
12840;SDS011;6487;48.626;12.486;2024-02-04T10:55:43;1.33;;;1.10;;
12840;SDS011;6487;48.626;12.486;2024-02-04T10:58:14;1.60;;;1.50;;
12840;SDS011;6487;48.626;12.486;2024-02-04T11:00:46;1.53;;;1.33;;
12840;SDS011;6487;48.626;12.486;2024-02-04T11:03:14;1.83;;;1.60;;
12840;SDS011;6487;48.626;12.486;2024-02-04T11:05:49;1.50;;;1.40;;
12840;SDS011;6487;48.626;12.486;2024-02-04T11:08:18;1.30;;;1.20;;
12840;SDS011;6487;48.626;12.486;2024-02-04T11:10:48;1.30;;;1.10;;
12840;SDS011;6487;48.626;12.486;2024-02-04T11:13:16;1.90;;;1.13;;
12840;SDS011;6487;48.626;12.486;2024-02-04T11:15:46;1.53;;;1.17;;
12840;SDS011;6487;48.626;12.486;2024-02-04T11:24:53;1.07;;;0.97;;
12840;SDS011;6487;48.626;12.486;2024-02-04T11:27:35;2.00;;;1.60;;
12840;SDS011;6487;48.626;12.486;2024-02-04T11:30:04;2.10;;;1.40;;
12840;SDS011;6487;48.626;12.486;2024-02-04T11:32:36;1.73;;;1.33;;
12840;SDS011;6487;48.626;12.486;2024-02-04T11:35:04;1.43;;;1.27;;
12840;SDS011;6487;48.626;12.486;2024-02-04T11:37:35;1.63;;;1.43;;
12840;SDS011;6487;48.626;12.486;2024-02-04T11:40:04;1.20;;;1.10;;
12840;SDS011;6487;48.626;12.486;2024-02-04T11:42:34;1.50;;;1.40;;
12840;SDS011;6487;48.626;12.486;2024-02-04T11:45:06;1.23;;;1.13;;
12840;SDS011;6487;48.626;12.486;2024-02-04T11:47:36;1.70;;;1.57;;
12840;SDS011;6487;48.626;12.486;2024-02-04T11:50:06;1.30;;;1.17;;
12840;SDS011;6487;48.626;12.486;2024-02-04T11:52:37;1.93;;;1.20;;
12840;SDS011;6487;48.626;12.486;2024-02-04T11:55:12;1.23;;;1.13;;
12840;SDS011;6487;48.626;12.486;2024-02-04T11:57:42;0.90;;;0.90;;
12840;SDS011;6487;48.626;12.486;2024-02-04T12:00:10;1.53;;;1.17;;
12840;SDS011;6487;48.626;12.486;2024-02-04T12:02:42;1.40;;;1.30;;
12840;SDS011;6487;48.626;12.486;2024-02-04T12:05:10;1.30;;;0.93;;
12840;SDS011;6487;48.626;12.486;2024-02-04T12:07:40;1.30;;;1.10;;
12840;SDS011;6487;48.626;12.486;2024-02-04T12:10:10;3.77;;;1.13;;
12840;SDS011;6487;48.626;12.486;2024-02-04T12:12:39;0.83;;;0.83;;
12840;SDS011;6487;48.626;12.486;2024-02-04T12:15:08;1.47;;;0.97;;
12840;SDS011;6487;48.626;12.486;2024-02-04T12:17:38;1.53;;;1.10;;
12840;SDS011;6487;48.626;12.486;2024-02-04T12:20:08;1.10;;;1.00;;
12840;SDS011;6487;48.626;12.486;2024-02-04T12:22:41;2.23;;;1.20;;
12840;SDS011;6487;48.626;12.486;2024-02-04T12:25:10;1.30;;;1.17;;
12840;SDS011;6487;48.626;12.486;2024-02-04T12:27:39;1.33;;;1.23;;
12840;SDS011;6487;48.626;12.486;2024-02-04T12:30:08;1.50;;;1.40;;
12840;SDS011;6487;48.626;12.486;2024-02-04T12:32:38;1.30;;;1.20;;
12840;SDS011;6487;48.626;12.486;2024-02-04T12:35:08;1.20;;;1.00;;
12840;SDS011;6487;48.626;12.486;2024-02-04T12:37:49;1.97;;;1.60;;
12840;SDS011;6487;48.626;12.486;2024-02-04T12:40:21;1.40;;;1.30;;
12840;SDS011;6487;48.626;12.486;2024-02-04T12:42:53;0.97;;;0.87;;
12840;SDS011;6487;48.626;12.486;2024-02-04T12:45:26;1.00;;;0.93;;
12840;SDS011;6487;48.626;12.486;2024-02-04T12:47:55;0.70;;;0.70;;
12840;SDS011;6487;48.626;12.486;2024-02-04T12:50:26;0.97;;;0.87;;
12840;SDS011;6487;48.626;12.486;2024-02-04T12:53:05;1.13;;;1.03;;
12840;SDS011;6487;48.626;12.486;2024-02-04T12:55:35;2.87;;;0.90;;
12840;SDS011;6487;48.626;12.486;2024-02-04T12:58:05;1.73;;;1.57;;
12840;SDS011;6487;48.626;12.486;2024-02-04T13:00:36;1.10;;;1.00;;
12840;SDS011;6487;48.626;12.486;2024-02-04T13:03:06;1.87;;;1.50;;
12840;SDS011;6487;48.626;12.486;2024-02-04T13:05:37;1.40;;;1.00;;
12840;SDS011;6487;48.626;12.486;2024-02-04T13:08:06;1.10;;;1.00;;
12840;SDS011;6487;48.626;12.486;2024-02-04T13:10:35;4.53;;;3.70;;
12840;SDS011;6487;48.626;12.486;2024-02-04T13:13:04;2.10;;;1.90;;
12840;SDS011;6487;48.626;12.486;2024-02-04T13:15:36;2.00;;;1.80;;
12840;SDS011;6487;48.626;12.486;2024-02-04T13:18:07;2.40;;;2.20;;
12840;SDS011;6487;48.626;12.486;2024-02-04T13:20:39;2.00;;;1.40;;
12840;SDS011;6487;48.626;12.486;2024-02-04T13:23:09;1.30;;;1.20;;
12840;SDS011;6487;48.626;12.486;2024-02-04T13:25:38;3.03;;;1.17;;
12840;SDS011;6487;48.626;12.486;2024-02-04T13:28:06;0.87;;;0.87;;
12840;SDS011;6487;48.626;12.486;2024-02-04T13:30:35;3.03;;;1.70;;
12840;SDS011;6487;48.626;12.486;2024-02-04T13:33:04;1.40;;;1.30;;
12840;SDS011;6487;48.626;12.486;2024-02-04T13:35:33;1.67;;;1.20;;
12840;SDS011;6487;48.626;12.486;2024-02-04T13:38:03;1.40;;;1.27;;
12840;SDS011;6487;48.626;12.486;2024-02-04T13:40:32;2.00;;;1.70;;
12840;SDS011;6487;48.626;12.486;2024-02-04T13:43:00;1.90;;;1.70;;
12840;SDS011;6487;48.626;12.486;2024-02-04T13:45:29;2.50;;;2.00;;
12840;SDS011;6487;48.626;12.486;2024-02-04T13:47:57;2.87;;;1.40;;
12840;SDS011;6487;48.626;12.486;2024-02-04T13:50:26;1.07;;;1.00;;
12840;SDS011;6487;48.626;12.486;2024-02-04T13:52:54;1.07;;;0.97;;
12840;SDS011;6487;48.626;12.486;2024-02-04T13:55:26;1.10;;;1.00;;
12840;SDS011;6487;48.626;12.486;2024-02-04T13:57:55;1.27;;;1.07;;
12840;SDS011;6487;48.626;12.486;2024-02-04T14:00:23;6.07;;;4.13;;
12840;SDS011;6487;48.626;12.486;2024-02-04T14:02:51;1.57;;;1.27;;
12840;SDS011;6487;48.626;12.486;2024-02-04T14:05:20;1.90;;;1.70;;
12840;SDS011;6487;48.626;12.486;2024-02-04T14:07:50;1.33;;;1.20;;
12840;SDS011;6487;48.626;12.486;2024-02-04T14:10:21;2.50;;;1.37;;
12840;SDS011;6487;48.626;12.486;2024-02-04T14:12:51;6.97;;;3.70;;
12840;SDS011;6487;48.626;12.486;2024-02-04T14:15:20;4.63;;;3.10;;
12840;SDS011;6487;48.626;12.486;2024-02-04T14:17:48;2.27;;;1.77;;
12840;SDS011;6487;48.626;12.486;2024-02-04T14:20:17;2.40;;;0.90;;
12840;SDS011;6487;48.626;12.486;2024-02-04T14:22:46;1.73;;;0.70;;
12840;SDS011;6487;48.626;12.486;2024-02-04T14:25:14;2.40;;;0.90;;
12840;SDS011;6487;48.626;12.486;2024-02-04T14:27:42;1.20;;;0.80;;
12840;SDS011;6487;48.626;12.486;2024-02-04T14:30:13;2.17;;;0.87;;
12840;SDS011;6487;48.626;12.486;2024-02-04T14:32:42;0.97;;;0.87;;
12840;SDS011;6487;48.626;12.486;2024-02-04T14:35:10;0.90;;;0.83;;
12840;SDS011;6487;48.626;12.486;2024-02-04T14:37:39;1.43;;;1.03;;
12840;SDS011;6487;48.626;12.486;2024-02-04T14:40:10;1.73;;;1.07;;
12840;SDS011;6487;48.626;12.486;2024-02-04T14:42:40;1.63;;;0.70;;
12840;SDS011;6487;48.626;12.486;2024-02-04T14:45:09;0.93;;;0.87;;
12840;SDS011;6487;48.626;12.486;2024-02-04T14:47:40;0.97;;;0.80;;
12840;SDS011;6487;48.626;12.486;2024-02-04T14:50:09;3.03;;;1.03;;
12840;SDS011;6487;48.626;12.486;2024-02-04T14:52:39;1.00;;;0.90;;
12840;SDS011;6487;48.626;12.486;2024-02-04T14:55:08;1.80;;;1.03;;
12840;SDS011;6487;48.626;12.486;2024-02-04T14:57:37;1.37;;;1.17;;
12840;SDS011;6487;48.626;12.486;2024-02-04T15:00:06;5.37;;;3.33;;
12840;SDS011;6487;48.626;12.486;2024-02-04T15:02:36;1.40;;;1.30;;
12840;SDS011;6487;48.626;12.486;2024-02-04T15:05:07;2.63;;;1.30;;
12840;SDS011;6487;48.626;12.486;2024-02-04T15:07:37;1.70;;;1.10;;